Woodlawn, TN (37191)

11:16 PM CDT on August 29, 2014 (GMT -0500)
Round Pond | Change Station
CLOSE
Current Station
Personal Weather Station
Location: Clarksville, TN
Elevation: 531 ft
Nearby Weather Stations

Elev 531 ft 36.45 °N, 87.41 °W | Updated 6 seconds ago

Clear
Clear
72.1 °F
Feels Like 72 °F
N
0.0
Wind Variable Wind from WSW
Gusts 0.0 mph

Today
High -- | Low -- °F
--% Chance of Precip.
Yesterday
High -- | Low -- °F
Precip. -- in
6:19 AM 7:22 PM
Waxing Crescent, 19% visible
Pressure 30.01 in
Visibility 10.0 miles
Clouds Clear
Heat Index 72 °F
Dew Point 66 °F
Humidity 80%
Rainfall 0.00 in
Snow Depth Not available.
UV 0 out of 12
Pollen 10.80 out of 12
PM2.5 Moderate
Flu Activity Not available.
METAR KHOP 300258Z AUTO 17004KT 10SM CLR 27/18 A3002 RMK AO2 SLP161 T02650175 52017

More Conditions Fewer Conditions

Pressure 30.01 in
Visibility 10.0 miles
Clouds Clear
Heat Index 72 °F
Dew Point 66 °F
Humidity 80%
Rainfall 0.00 in
Snow Depth Not available.
UV 0 out of 12
Pollen 10.80 out of 12
PM2.5 Moderate
Flu Activity Not available.
METAR KHOP 300258Z AUTO 17004KT 10SM CLR 27/18 A3002 RMK AO2 SLP161 T02650175 52017

More Conditions Fewer Conditions

10-Day Weather Forecast

Almanac

Astronomy

Aug. 29, 2014 Rise Set
Actual Time 6:19 AM CDT 7:22 PM CDT
Civil Twilight 5:52 AM CDT 7:48 PM CDT
Nautical Twilight 5:20 AM CDT 8:20 PM CDT
Astronomical Twilight 4:48 AM CDT 8:52 PM CDT
Moon 10:00 AM CDT (8/29) 9:27 PM CDT (8/29)
Length of Visible Light 13h 56m
Length of Day
13h 03m
Tomorrow will be 2m 12s shorter.
Waxing Crescent, 19% of the Moon is Illuminated
Aug 30
Waxing Crescent
Sep 2
First Quarter
Sep 8
Full
Sep 15
Last Quarter
Sep 24
New

Today's Extremes

State Highs State Lows

Community

WunderPhotos

Upload Photos

1,748,448 photos uploaded!

Nearby

Air Quality

  Air Quality AQ Index Pollutant
Yesterday Moderate
PM2.5
Yesterday Good
OZONE
Current Moderate
PM2.5
Friday Moderate
PM2.5
Friday Moderate
OZONE
Saturday Moderate
PM2.5
Saturday Good
OZONE
Sunday Good
PM2.5
Sunday Good
OZONE

Snow Depth

Station Depth Elevation
No new snow has been reported.

Earthquake Activity

City Distance Mag. Time & Date
No recent earthquake activity has been reported nearby.
Minimum magnitude displayed is 2.5.

Coastal Water Temperatures

Place Temperature
No Stations Reporting

Nearby Weather Stations